Wickwar, United Kingdom
Current Conditions -  °F | °C
As of 4:20 AM on Friday 28 Nov 2014 (Local Time) from EGGD Reporting Station
Haze Haze  
Wind Chill: 42°   Ceiling: 500
Heat Index: 48°   Visibility: 2.6mi
Dew Point: 46°   Wind: 17mph
Humidity: 93%   Direction: 80°E
Pressure: 29.5"   Gusts: NA
Location:  51.59°N, 2.4°W
Report Text: EGGD 280420Z 08015KT 4300 BR BKN005 09/08 Q0999
Loading
Personal Weather Stations






























Interactive Weather Map New forecast layout! Learn more

10-Day Weather Forecast

Advertisements
Track Severe Weather on mobile